Time;durP1;ratioP1;P1;durP2;ratioP2;P2;SDS_P1;SDS_P2;PMS_P1;PMS_P2;Temp;Humidity;BMP_temperature;BMP_pressure;BME280_temperature;BME280_humidity;BME280_pressure;Samples;Min_cycle;Max_cycle;Signal;HPM_P1;HPM_P2
2023/06/30 00:00:12;;;;;;;10.35;4.05;;;16.60;99.90;;;;;;4936840;29;20066;-92
2023/06/30 00:02:39;;;;;;;13.18;3.72;;;16.60;99.90;;;;;;4954459;28;20050;-94
2023/06/30 00:05:09;;;;;;;11.38;3.50;;;16.60;99.90;;;;;;4954666;28;20125;-91
2023/06/30 00:07:34;;;;;;;7.80;3.58;;;16.30;99.90;;;;;;4936184;28;20054;-92
2023/06/30 00:10:00;;;;;;;11.38;4.10;;;16.50;99.90;;;;;;4954109;28;20406;-92
2023/06/30 00:12:26;;;;;;;11.05;3.55;;;16.50;99.90;;;;;;4954323;28;20472;-92
2023/06/30 00:14:55;;;;;;;8.63;3.38;;;16.40;99.90;;;;;;4936190;28;20048;-92
2023/06/30 00:17:23;;;;;;;9.48;3.30;;;16.50;99.90;;;;;;4936221;28;20073;-92
2023/06/30 00:19:50;;;;;;;6.43;2.85;;;16.40;99.90;;;;;;4935143;28;20047;-91
2023/06/30 00:22:22;;;;;;;6.93;3.40;;;16.40;99.90;;;;;;4939815;29;20057;-92
2023/06/30 00:24:53;;;;;;;9.85;4.20;;;16.40;99.90;;;;;;4936636;28;20049;-92
2023/06/30 00:27:19;;;;;;;9.73;3.55;;;16.30;99.90;;;;;;4949656;28;20040;-92
2023/06/30 00:29:44;;;;;;;7.60;3.33;;;16.30;99.90;;;;;;4934260;28;20035;-93
2023/06/30 00:32:10;;;;;;;11.00;3.58;;;16.20;99.90;;;;;;4933724;29;20058;-92
2023/06/30 00:34:36;;;;;;;9.52;3.33;;;16.20;99.90;;;;;;4950917;28;20458;-92
2023/06/30 00:37:02;;;;;;;9.88;3.40;;;16.20;99.90;;;;;;4955454;28;20035;-92
2023/06/30 00:39:27;;;;;;;12.63;3.85;;;16.20;99.90;;;;;;4923183;28;20086;-91
2023/06/30 00:41:56;;;;;;;8.52;3.28;;;16.20;99.90;;;;;;4956812;28;20039;-92
2023/06/30 00:44:22;;;;;;;9.90;4.32;;;16.10;99.90;;;;;;4956165;28;20040;-91
2023/06/30 00:46:47;;;;;;;6.55;3.03;;;16.30;99.90;;;;;;4954860;28;20429;-92
2023/06/30 00:49:13;;;;;;;12.25;3.78;;;16.10;99.90;;;;;;4936685;28;20047;-92
2023/06/30 00:51:42;;;;;;;9.07;3.17;;;16.10;99.90;;;;;;4936076;29;20375;-91
2023/06/30 00:54:08;;;;;;;6.60;3.17;;;16.00;99.90;;;;;;4940315;28;20040;-92
2023/06/30 00:56:34;;;;;;;11.32;3.15;;;16.00;99.90;;;;;;4938649;28;20043;-92
2023/06/30 00:59:00;;;;;;;12.55;4.15;;;16.00;99.90;;;;;;4939530;29;20063;-90
2023/06/30 01:01:56;;;;;;;10.07;4.10;;;16.00;99.90;;;;;;4939471;28;20576;-91
2023/06/30 01:04:36;;;;;;;9.82;3.60;;;16.00;99.90;;;;;;4925701;29;20049;-91
2023/06/30 01:07:14;;;;;;;8.07;2.65;;;16.00;99.90;;;;;;4962132;28;20050;-91
2023/06/30 01:09:49;;;;;;;6.82;2.88;;;15.90;99.90;;;;;;4955567;28;20050;-90
2023/06/30 01:12:15;;;;;;;7.60;2.90;;;15.90;99.90;;;;;;4938760;28;20041;-91
2023/06/30 01:14:43;;;;;;;7.63;2.83;;;15.90;99.90;;;;;;4956168;28;20054;-91
2023/06/30 01:17:09;;;;;;;7.15;2.63;;;15.80;99.90;;;;;;4956027;28;20470;-91
2023/06/30 01:19:44;;;;;;;7.80;3.15;;;15.80;99.90;;;;;;4960238;28;20049;-90
2023/06/30 01:22:39;;;;;;;9.35;3.45;;;15.80;99.90;;;;;;4938719;28;20079;-90
2023/06/30 01:25:10;;;;;;;8.60;3.58;;;15.80;99.90;;;;;;4950231;28;20518;-90
2023/06/30 01:27:39;;;;;;;7.95;2.85;;;15.70;99.90;;;;;;4938212;28;20043;-90
2023/06/30 01:30:09;;;;;;;11.35;3.33;;;15.70;99.90;;;;;;4952221;28;20047;-91
2023/06/30 01:32:35;;;;;;;9.63;3.55;;;15.70;99.90;;;;;;4927114;28;20086;-91
2023/06/30 01:35:04;;;;;;;9.50;3.38;;;15.70;99.90;;;;;;4950457;28;20047;-91
2023/06/30 01:37:33;;;;;;;10.25;3.10;;;15.60;99.90;;;;;;4944529;28;20375;-90
2023/06/30 01:40:00;;;;;;;7.93;3.30;;;15.70;99.90;;;;;;4937772;28;20039;-90
2023/06/30 01:42:27;;;;;;;9.40;3.03;;;15.60;99.90;;;;;;4934763;28;20397;-90
2023/06/30 01:44:54;;;;;;;9.50;2.88;;;15.60;99.90;;;;;;4955667;28;20070;-90
2023/06/30 01:47:21;;;;;;;5.85;2.60;;;15.50;99.90;;;;;;4953999;29;20062;-90
2023/06/30 01:49:49;;;;;;;9.30;3.30;;;15.50;99.90;;;;;;4955593;28;20122;-90
2023/06/30 01:52:15;;;;;;;9.02;3.38;;;15.50;99.90;;;;;;4955181;28;20039;-89
2023/06/30 01:54:41;;;;;;;9.75;3.55;;;15.50;99.90;;;;;;4937721;28;20055;-90
2023/06/30 01:57:07;;;;;;;7.32;2.75;;;15.40;99.90;;;;;;4936183;28;20046;-90
2023/06/30 01:59:32;;;;;;;6.00;2.25;;;15.40;99.90;;;;;;4938223;28;20059;-90
2023/06/30 02:02:01;;;;;;;7.72;2.90;;;15.40;99.90;;;;;;4939163;28;20047;-89
2023/06/30 02:04:27;;;;;;;10.05;3.38;;;15.30;99.90;;;;;;4942193;28;20509;-90
2023/06/30 02:06:54;;;;;;;7.05;2.97;;;15.30;99.90;;;;;;4959749;28;20074;-90
2023/06/30 02:09:20;;;;;;;8.57;2.90;;;15.20;99.90;;;;;;4959460;28;20058;-90
2023/06/30 02:11:46;;;;;;;8.93;3.15;;;15.20;99.90;;;;;;4958584;28;20059;-89
2023/06/30 02:14:11;;;;;;;7.95;2.53;;;15.20;99.90;;;;;;4958452;28;20393;-90
2023/06/30 02:16:37;;;;;;;12.18;3.22;;;15.10;99.90;;;;;;4959221;28;20092;-90
2023/06/30 02:19:03;;;;;;;8.95;3.35;;;15.10;99.90;;;;;;4956633;29;20131;-89
2023/06/30 02:21:28;;;;;;;7.75;2.92;;;15.20;99.90;;;;;;4941186;29;20051;-89
2023/06/30 02:23:54;;;;;;;7.03;3.35;;;15.10;99.90;;;;;;4960871;28;20055;-89
2023/06/30 02:26:20;;;;;;;9.30;2.60;;;15.00;99.90;;;;;;4930217;28;20114;-89
2023/06/30 02:28:46;;;;;;;7.18;2.80;;;15.00;99.90;;;;;;4958852;28;20122;-89
2023/06/30 02:31:12;;;;;;;7.78;2.55;;;15.00;99.90;;;;;;4955711;28;20047;-89
2023/06/30 02:33:38;;;;;;;8.38;3.00;;;15.00;99.90;;;;;;4934808;28;20051;-89
2023/06/30 02:36:04;;;;;;;8.98;3.10;;;15.00;99.90;;;;;;4956339;28;20115;-89
2023/06/30 02:38:31;;;;;;;8.32;2.40;;;15.00;99.90;;;;;;4941797;29;20126;-89
2023/06/30 02:40:57;;;;;;;10.98;3.08;;;14.90;99.90;;;;;;4955851;28;20513;-89
2023/06/30 02:43:22;;;;;;;9.45;2.97;;;14.90;99.90;;;;;;4956908;28;20067;-89
2023/06/30 02:45:48;;;;;;;6.53;2.97;;;14.90;99.90;;;;;;4956155;28;20446;-89
2023/06/30 02:48:14;;;;;;;7.88;2.80;;;14.90;99.90;;;;;;4937452;28;20039;-89
2023/06/30 02:50:40;;;;;;;7.55;2.50;;;14.80;99.90;;;;;;4937160;28;20043;-88
2023/06/30 02:53:06;;;;;;;7.25;2.85;;;14.80;99.90;;;;;;4954683;28;20050;-89
2023/06/30 02:55:35;;;;;;;8.38;3.13;;;14.80;99.90;;;;;;4955892;28;20035;-88
2023/06/30 02:58:01;;;;;;;7.88;3.08;;;14.80;99.90;;;;;;4938878;28;20047;-89
2023/06/30 03:00:26;;;;;;;6.35;2.58;;;14.70;99.90;;;;;;4955503;28;20105;-89
2023/06/30 03:02:53;;;;;;;8.10;2.78;;;14.70;99.90;;;;;;4933573;29;20085;-88
2023/06/30 03:05:20;;;;;;;9.32;3.25;;;14.70;99.90;;;;;;4934940;28;20039;-88
2023/06/30 03:07:45;;;;;;;8.70;3.35;;;14.70;99.90;;;;;;4942895;29;20065;-89
2023/06/30 03:10:12;;;;;;;7.32;2.67;;;14.70;99.90;;;;;;4935973;29;20044;-89
2023/06/30 03:12:37;;;;;;;8.18;2.90;;;14.60;99.90;;;;;;4939487;28;20652;-88
2023/06/30 03:15:05;;;;;;;10.20;2.58;;;14.60;99.90;;;;;;4925397;28;20132;-88
2023/06/30 03:17:32;;;;;;;7.93;2.88;;;14.60;99.90;;;;;;4920988;28;20506;-89
2023/06/30 03:19:58;;;;;;;7.38;3.20;;;14.60;99.90;;;;;;4947586;28;20174;-89
2023/06/30 03:22:23;;;;;;;7.57;2.47;;;14.50;99.90;;;;;;4937204;28;20074;-88
2023/06/30 03:24:49;;;;;;;8.23;2.60;;;14.50;99.90;;;;;;4954614;28;20063;-89
2023/06/30 03:27:15;;;;;;;8.88;3.30;;;14.50;99.90;;;;;;4935062;28;20058;-89
2023/06/30 03:29:41;;;;;;;7.22;3.20;;;14.50;99.90;;;;;;4951781;28;20050;-88
2023/06/30 03:32:07;;;;;;;10.00;3.35;;;14.50;99.90;;;;;;4935917;29;20086;-89
2023/06/30 03:34:32;;;;;;;11.40;3.92;;;14.40;99.90;;;;;;4955116;28;20052;-88
2023/06/30 03:36:58;;;;;;;6.57;2.90;;;14.40;99.90;;;;;;4939759;28;20164;-88
2023/06/30 03:39:24;;;;;;;8.38;2.47;;;14.40;99.90;;;;;;4935491;28;20071;-89
2023/06/30 03:41:53;;;;;;;5.28;2.30;;;14.30;99.90;;;;;;4953169;28;20086;-89
2023/06/30 03:44:18;;;;;;;5.53;2.17;;;14.40;99.90;;;;;;4932729;29;20146;-88
2023/06/30 03:46:46;;;;;;;7.00;2.38;;;14.40;99.90;;;;;;4932725;28;20065;-89
2023/06/30 03:49:12;;;;;;;9.57;3.17;;;14.40;99.90;;;;;;4952330;28;20150;-89
2023/06/30 03:51:38;;;;;;;7.60;2.75;;;14.40;99.90;;;;;;4951881;28;20078;-89
2023/06/30 03:54:04;;;;;;;4.38;2.08;;;14.30;99.90;;;;;;4932873;29;20127;-88
2023/06/30 03:56:29;;;;;;;7.25;2.50;;;14.30;99.90;;;;;;4950981;28;20118;-89
2023/06/30 03:58:56;;;;;;;9.45;2.45;;;14.40;99.90;;;;;;4950561;28;20050;-89
2023/06/30 04:01:25;;;;;;;7.28;2.65;;;14.20;99.90;;;;;;4897439;28;1090660;-88
2023/06/30 04:03:54;;;;;;;8.45;3.33;;;14.20;99.90;;;;;;4935884;28;20058;-89
2023/06/30 04:06:19;;;;;;;6.97;2.58;;;14.20;99.90;;;;;;4936084;28;20394;-89
2023/06/30 04:08:45;;;;;;;9.43;2.80;;;14.10;99.90;;;;;;4955121;28;20164;-88
2023/06/30 04:11:11;;;;;;;5.75;2.40;;;14.10;99.90;;;;;;4954733;28;20105;-88
2023/06/30 04:13:40;;;;;;;8.98;3.42;;;14.10;99.90;;;;;;4936471;28;20043;-89
2023/06/30 04:16:06;;;;;;;7.03;2.53;;;14.10;99.90;;;;;;4950920;28;20047;-89
2023/06/30 04:18:32;;;;;;;8.52;3.38;;;14.10;99.90;;;;;;4952993;28;20038;-88
2023/06/30 04:20:58;;;;;;;9.88;2.88;;;14.10;99.90;;;;;;4932312;28;20039;-88
2023/06/30 04:23:24;;;;;;;8.50;3.00;;;14.10;99.90;;;;;;4935979;29;20043;-88
2023/06/30 04:25:56;;;;;;;7.50;3.35;;;14.10;99.90;;;;;;4953382;28;20039;-88
2023/06/30 04:28:22;;;;;;;10.60;3.80;;;14.10;99.90;;;;;;4953623;28;20043;-88
2023/06/30 04:30:48;;;;;;;8.45;2.85;;;14.10;99.90;;;;;;4953577;28;20027;-88
2023/06/30 04:33:16;;;;;;;10.30;3.45;;;14.10;99.90;;;;;;4936091;28;20054;-88
2023/06/30 04:35:43;;;;;;;6.97;3.08;;;14.10;99.90;;;;;;4933963;28;20042;-88
2023/06/30 04:38:09;;;;;;;10.13;4.30;;;14.20;99.90;;;;;;4938394;29;20112;-88
2023/06/30 04:40:35;;;;;;;6.05;3.20;;;14.00;99.90;;;;;;4951077;28;20040;-88
2023/06/30 04:43:02;;;;;;;10.68;3.03;;;14.10;99.90;;;;;;4952157;28;20040;-88
2023/06/30 04:45:31;;;;;;;8.70;2.97;;;14.00;99.90;;;;;;4951056;28;20174;-88
2023/06/30 04:47:57;;;;;;;12.88;4.03;;;14.10;99.90;;;;;;4920352;28;20406;-88
2023/06/30 04:50:25;;;;;;;7.18;2.88;;;14.10;99.90;;;;;;4934553;28;20043;-89
2023/06/30 04:52:53;;;;;;;6.15;2.25;;;14.00;99.90;;;;;;4930995;29;20055;-89
2023/06/30 04:55:19;;;;;;;10.40;3.03;;;14.10;99.90;;;;;;4933636;29;20039;-88
2023/06/30 04:57:45;;;;;;;8.75;3.63;;;14.10;99.90;;;;;;4934094;28;20138;-89
2023/06/30 05:00:11;;;;;;;11.35;3.88;;;14.10;99.90;;;;;;4951421;28;20499;-88
2023/06/30 05:02:37;;;;;;;8.75;3.30;;;14.10;99.90;;;;;;4948685;28;20126;-87
2023/06/30 05:05:03;;;;;;;7.65;3.65;;;14.10;99.90;;;;;;4950932;28;20127;-88
2023/06/30 05:07:28;;;;;;;6.63;2.95;;;14.10;99.90;;;;;;4931387;29;20402;-88
2023/06/30 05:09:54;;;;;;;10.93;2.70;;;14.10;99.90;;;;;;4932006;29;20076;-85
2023/06/30 05:12:20;;;;;;;5.70;2.90;;;14.10;99.90;;;;;;4950652;28;20050;-85
2023/06/30 05:14:46;;;;;;;9.70;3.78;;;14.20;99.90;;;;;;4931521;28;20499;-85
2023/06/30 05:17:11;;;;;;;9.93;3.22;;;14.10;99.90;;;;;;4949252;28;20027;-85
2023/06/30 05:19:37;;;;;;;9.60;3.20;;;14.20;99.90;;;;;;4950880;28;20035;-84
2023/06/30 05:22:03;;;;;;;6.85;2.95;;;14.20;99.90;;;;;;4951631;28;20389;-86
2023/06/30 05:24:29;;;;;;;9.90;3.10;;;14.20;99.90;;;;;;4932430;28;20051;-85
2023/06/30 05:26:56;;;;;;;12.82;3.10;;;14.20;99.90;;;;;;4935260;29;20378;-85
2023/06/30 05:29:22;;;;;;;8.73;3.42;;;14.20;99.90;;;;;;4948949;28;20051;-86
2023/06/30 05:31:47;;;;;;;10.82;3.25;;;14.30;99.90;;;;;;4954592;28;20035;-85
2023/06/30 05:34:16;;;;;;;9.63;2.78;;;14.40;99.90;;;;;;4934366;29;20494;-84
2023/06/30 05:36:44;;;;;;;10.98;3.80;;;14.30;99.90;;;;;;4953261;28;20082;-85
2023/06/30 05:39:11;;;;;;;9.75;3.38;;;14.40;99.90;;;;;;4953369;28;20050;-85
2023/06/30 05:41:38;;;;;;;7.35;3.30;;;14.40;99.90;;;;;;4936042;28;20094;-86
2023/06/30 05:44:05;;;;;;;10.70;3.45;;;14.40;99.90;;;;;;4936465;28;20048;-87
2023/06/30 05:46:31;;;;;;;10.70;3.10;;;14.50;99.90;;;;;;4937823;29;20110;-85
2023/06/30 05:48:57;;;;;;;9.63;3.33;;;14.50;99.90;;;;;;4937669;28;20129;-85
2023/06/30 05:51:22;;;;;;;8.90;3.50;;;14.60;99.90;;;;;;4956312;28;20046;-85
2023/06/30 05:53:48;;;;;;;7.57;3.20;;;14.60;99.90;;;;;;4955229;28;20039;-84
2023/06/30 05:56:14;;;;;;;6.10;2.53;;;14.70;99.90;;;;;;4955824;28;20075;-85
2023/06/30 05:58:40;;;;;;;8.05;2.83;;;14.80;99.90;;;;;;4954189;28;20058;-85
2023/06/30 06:01:06;;;;;;;11.27;2.55;;;14.90;99.90;;;;;;4955651;28;20081;-86
2023/06/30 06:03:32;;;;;;;6.90;2.53;;;15.10;99.90;;;;;;4956353;28;20502;-87
2023/06/30 06:05:57;;;;;;;7.93;2.05;;;15.20;99.90;;;;;;4957801;28;20560;-88
2023/06/30 06:08:23;;;;;;;6.53;2.35;;;15.30;99.90;;;;;;4963696;28;20074;-86
2023/06/30 06:10:49;;;;;;;8.73;2.72;;;15.40;99.90;;;;;;4925942;28;20533;-88
2023/06/30 06:13:37;;;;;;;9.35;2.83;;;15.40;99.90;;;;;;4939525;28;20031;-86
2023/06/30 06:16:04;;;;;;;6.88;2.10;;;15.40;99.90;;;;;;4940476;28;20075;-88
2023/06/30 06:18:30;;;;;;;7.90;2.60;;;15.40;99.90;;;;;;4957008;28;20028;-87
2023/06/30 06:20:56;;;;;;;9.13;2.65;;;15.40;99.90;;;;;;4942108;28;20162;-95
2023/06/30 06:23:23;;;;;;;10.80;2.63;;;15.40;99.90;;;;;;4955985;28;20083;-86
2023/06/30 06:25:50;;;;;;;5.13;1.98;;;15.40;99.90;;;;;;4934925;29;20039;-83
2023/06/30 06:28:17;;;;;;;5.72;2.10;;;15.50;99.90;;;;;;4950783;29;20634;-84
2023/06/30 06:30:44;;;;;;;5.93;2.00;;;15.50;99.90;;;;;;4934889;29;20035;-83
2023/06/30 06:33:10;;;;;;;11.15;2.80;;;15.50;99.90;;;;;;4931931;28;20270;-83
2023/06/30 06:35:35;;;;;;;9.13;1.73;;;15.60;99.90;;;;;;4932571;28;20172;-83
2023/06/30 06:38:01;;;;;;;8.45;2.30;;;15.60;99.90;;;;;;4933138;29;20040;-84
2023/06/30 06:40:31;;;;;;;8.48;2.53;;;15.70;99.90;;;;;;4950133;28;20047;-85
2023/06/30 06:42:56;;;;;;;8.95;2.13;;;15.70;99.90;;;;;;4933988;29;20075;-86
2023/06/30 06:45:23;;;;;;;8.05;2.35;;;15.80;99.90;;;;;;4930063;28;20105;-85
2023/06/30 06:48:24;;;;;;;6.00;1.83;;;15.80;99.90;;;;;;4934371;28;20062;-86
2023/06/30 06:50:52;;;;;;;6.97;1.85;;;15.90;99.90;;;;;;4934151;29;20050;-86
2023/06/30 06:53:32;;;;;;;6.22;1.80;;;16.00;99.90;;;;;;4934400;28;20039;-86
2023/06/30 06:55:59;;;;;;;5.97;1.77;;;16.10;99.90;;;;;;4934529;28;20043;-86
2023/06/30 06:58:28;;;;;;;6.97;1.92;;;16.10;99.90;;;;;;4950138;28;20047;-89
2023/06/30 07:00:54;;;;;;;10.60;2.72;;;16.20;99.90;;;;;;4924732;29;20055;-90
2023/06/30 07:03:20;;;;;;;10.18;2.08;;;16.20;99.90;;;;;;4925589;29;20566;-90
2023/06/30 07:05:46;;;;;;;7.63;1.63;;;16.30;99.90;;;;;;4954038;29;20090;-89
2023/06/30 07:08:18;;;;;;;6.72;1.90;;;16.40;99.90;;;;;;4950364;28;20102;-93
2023/06/30 07:10:45;;;;;;;8.05;2.40;;;16.60;99.90;;;;;;4950901;28;20051;-88
2023/06/30 07:13:12;;;;;;;8.88;2.15;;;16.80;99.90;;;;;;4933344;28;20039;-89
2023/06/30 07:15:38;;;;;;;7.78;1.60;;;16.90;99.90;;;;;;4925641;29;20031;-91
2023/06/30 07:18:04;;;;;;;7.75;1.63;;;17.10;99.90;;;;;;4934081;29;20046;-87
2023/06/30 07:20:29;;;;;;;4.40;1.60;;;17.20;99.90;;;;;;4930078;29;20043;-87
2023/06/30 07:22:56;;;;;;;5.40;1.40;;;17.50;99.90;;;;;;4934413;28;20639;-88
2023/06/30 07:25:25;;;;;;;4.60;1.38;;;17.50;99.90;;;;;;4936192;28;20051;-89
2023/06/30 07:27:54;;;;;;;6.18;1.27;;;17.80;99.90;;;;;;4932072;29;20043;-89
2023/06/30 07:30:27;;;;;;;7.05;1.25;;;17.90;99.90;;;;;;4951930;28;20616;-90
2023/06/30 07:32:54;;;;;;;5.35;1.48;;;18.30;99.90;;;;;;4936576;29;20063;-89
2023/06/30 07:35:21;;;;;;;3.70;1.23;;;18.30;99.90;;;;;;4950104;28;20051;-90
2023/06/30 07:37:48;;;;;;;6.50;1.25;;;18.40;99.90;;;;;;4936531;29;20453;-90
2023/06/30 07:40:16;;;;;;;7.72;1.40;;;18.50;99.90;;;;;;4911165;29;20043;-91
2023/06/30 07:42:42;;;;;;;5.18;1.30;;;18.50;99.90;;;;;;4949840;28;20459;-92
2023/06/30 07:45:13;;;;;;;5.13;1.17;;;18.50;99.90;;;;;;4936535;28;20043;-93
2023/06/30 07:47:42;;;;;;;5.60;1.05;;;18.60;99.90;;;;;;4954246;28;20035;-92
2023/06/30 07:50:11;;;;;;;5.57;1.17;;;18.70;99.90;;;;;;4935998;29;20047;-92
2023/06/30 07:52:40;;;;;;;4.80;1.20;;;18.70;99.90;;;;;;4955891;28;20063;-93
2023/06/30 07:55:07;;;;;;;7.20;2.17;;;18.80;99.90;;;;;;4937247;29;20045;-93
2023/06/30 07:57:32;;;;;;;5.13;1.13;;;18.90;99.90;;;;;;4954052;28;20039;-91
2023/06/30 07:59:58;;;;;;;4.13;1.23;;;18.90;99.90;;;;;;4935684;29;20098;-89
2023/06/30 08:02:24;;;;;;;6.15;1.25;;;19.00;99.90;;;;;;4921046;28;20487;-91
2023/06/30 08:04:50;;;;;;;6.00;1.55;;;18.90;99.90;;;;;;4954264;28;20073;-90
2023/06/30 08:07:16;;;;;;;5.43;1.10;;;18.80;99.90;;;;;;4936704;29;20074;-90
2023/06/30 08:09:42;;;;;;;5.07;1.20;;;18.80;99.90;;;;;;4949755;28;20043;-91
2023/06/30 08:12:08;;;;;;;9.35;1.40;;;18.90;99.90;;;;;;4936021;29;20043;-90
2023/06/30 08:14:35;;;;;;;3.70;0.80;;;19.20;99.90;;;;;;4930286;29;20039;-90
2023/06/30 08:17:02;;;;;;;5.47;1.55;;;19.30;99.90;;;;;;4935448;28;20055;-88
2023/06/30 08:19:27;;;;;;;8.65;1.58;;;19.50;99.90;;;;;;4951611;28;20046;-91
2023/06/30 08:21:53;;;;;;;5.18;1.30;;;19.50;99.90;;;;;;4935222;28;20066;-91
2023/06/30 08:24:19;;;;;;;5.40;1.30;;;19.30;99.90;;;;;;4940250;28;20035;-90
2023/06/30 08:26:44;;;;;;;3.38;1.00;;;19.10;99.90;;;;;;4937326;28;20545;-91
2023/06/30 08:29:10;;;;;;;6.63;1.23;;;18.90;99.90;;;;;;4953145;28;20094;-91
2023/06/30 08:31:36;;;;;;;5.05;1.42;;;18.70;99.90;;;;;;4952211;28;20157;-92
2023/06/30 08:34:02;;;;;;;4.47;1.08;;;18.50;99.90;;;;;;4951185;28;20043;-90
2023/06/30 08:36:28;;;;;;;5.30;1.00;;;18.50;99.90;;;;;;4947012;28;20472;-89
2023/06/30 08:38:53;;;;;;;7.97;1.38;;;18.60;99.90;;;;;;4938707;29;20042;-89
2023/06/30 08:41:19;;;;;;;5.15;1.00;;;18.90;99.90;;;;;;4937918;29;20047;-91
2023/06/30 08:43:46;;;;;;;5.55;1.48;;;19.10;99.90;;;;;;4955071;28;20486;-88
2023/06/30 08:46:16;;;;;;;6.57;1.13;;;19.40;99.90;;;;;;4937689;29;20117;-87
2023/06/30 08:48:44;;;;;;;6.65;1.05;;;19.70;99.90;;;;;;4938156;29;20047;-88
2023/06/30 08:51:10;;;;;;;4.65;1.10;;;19.90;99.90;;;;;;4936933;28;20054;-88
2023/06/30 08:53:37;;;;;;;4.53;0.90;;;20.10;99.90;;;;;;4936081;28;20035;-89
2023/06/30 08:56:03;;;;;;;8.30;0.98;;;20.20;99.90;;;;;;4920688;29;20070;-89
2023/06/30 08:58:29;;;;;;;7.30;1.33;;;20.10;99.90;;;;;;4932080;29;20093;-90
2023/06/30 09:00:55;;;;;;;3.55;0.80;;;19.90;99.90;;;;;;4950753;28;20138;-88
2023/06/30 09:03:22;;;;;;;3.38;0.95;;;19.70;99.90;;;;;;4932873;28;20055;-88
2023/06/30 09:05:54;;;;;;;4.05;0.80;;;19.80;99.90;;;;;;4933424;29;20043;-88
2023/06/30 09:08:23;;;;;;;2.72;0.70;;;19.90;99.90;;;;;;4953043;28;20044;-88
2023/06/30 09:10:50;;;;;;;3.45;0.90;;;20.10;99.90;;;;;;4934548;28;20457;-87
2023/06/30 09:13:23;;;;;;;4.65;0.80;;;20.30;99.90;;;;;;4933401;29;20042;-87
2023/06/30 09:15:49;;;;;;;5.13;0.95;;;20.40;99.90;;;;;;4934181;28;20056;-87
2023/06/30 09:18:15;;;;;;;4.97;0.98;;;20.50;99.90;;;;;;4934388;28;20067;-87
2023/06/30 09:20:40;;;;;;;2.67;0.60;;;20.60;99.90;;;;;;4929068;29;20039;-84
2023/06/30 09:23:07;;;;;;;4.35;0.75;;;20.70;99.90;;;;;;4948351;29;20035;-86
2023/06/30 09:25:39;;;;;;;6.38;0.90;;;20.80;99.90;;;;;;4932417;28;20047;-87
2023/06/30 09:28:14;;;;;;;3.33;0.73;;;20.90;99.90;;;;;;4932891;28;20050;-87
2023/06/30 09:30:44;;;;;;;3.55;0.93;;;21.00;99.90;;;;;;4933619;28;20054;-86
2023/06/30 09:33:13;;;;;;;2.53;0.88;;;21.10;99.90;;;;;;4934067;29;20486;-87
2023/06/30 09:35:41;;;;;;;4.32;0.85;;;21.10;99.90;;;;;;4944540;28;20043;-88
2023/06/30 09:38:20;;;;;;;3.30;0.70;;;21.10;99.90;;;;;;4948474;28;20042;-88
2023/06/30 09:40:50;;;;;;;5.00;0.80;;;21.10;99.90;;;;;;4929862;29;20138;-87
2023/06/30 09:43:17;;;;;;;1.80;0.60;;;21.00;99.90;;;;;;4948831;28;20537;-87
2023/06/30 09:45:52;;;;;;;2.20;0.90;;;20.90;99.90;;;;;;4930783;28;20047;-87
2023/06/30 09:48:18;;;;;;;3.60;0.80;;;20.80;99.90;;;;;;4930183;29;20050;-88
2023/06/30 09:50:44;;;;;;;4.68;0.70;;;20.90;99.90;;;;;;4930652;28;20406;-88
2023/06/30 09:53:10;;;;;;;4.88;0.65;;;21.00;99.90;;;;;;4927890;28;20040;-87
2023/06/30 09:55:49;;;;;;;2.42;0.63;;;21.20;99.90;;;;;;4916983;28;20143;-87
2023/06/30 09:58:19;;;;;;;3.67;0.85;;;21.30;99.90;;;;;;4946437;28;20122;-87
2023/06/30 10:00:47;;;;;;;6.25;0.90;;;21.40;99.90;;;;;;4948561;28;20110;-86
2023/06/30 10:03:57;;;;;;;5.47;1.20;;;21.60;99.90;;;;;;4947768;28;20047;-87
2023/06/30 10:06:23;;;;;;;4.05;0.80;;;21.60;99.60;;;;;;4941073;28;20055;-87
2023/06/30 10:08:53;;;;;;;6.50;1.45;;;21.50;99.90;;;;;;4909138;29;20048;-88
2023/06/30 10:11:22;;;;;;;3.20;0.68;;;21.30;99.90;;;;;;4929062;28;20043;-88
2023/06/30 10:13:53;;;;;;;1.52;0.68;;;21.20;99.90;;;;;;4928753;29;20063;-87
2023/06/30 10:16:21;;;;;;;2.58;0.70;;;21.30;99.30;;;;;;4931589;28;20063;-87
2023/06/30 10:18:50;;;;;;;2.33;0.80;;;21.50;99.20;;;;;;4943323;29;20031;-86
2023/06/30 10:21:16;;;;;;;3.47;0.68;;;21.60;98.60;;;;;;4932877;28;20067;-85
2023/06/30 10:23:44;;;;;;;3.33;0.90;;;21.80;97.90;;;;;;4929140;28;20060;-86
2023/06/30 10:26:17;;;;;;;2.28;0.90;;;21.90;98.50;;;;;;4952672;28;20039;-86
2023/06/30 10:28:43;;;;;;;4.00;0.80;;;22.10;98.80;;;;;;4951548;28;20049;-86
2023/06/30 10:31:09;;;;;;;3.55;0.80;;;22.20;98.20;;;;;;4954007;28;20043;-87
2023/06/30 10:33:36;;;;;;;3.63;1.00;;;22.20;97.20;;;;;;4934413;29;20040;-88
2023/06/30 10:36:03;;;;;;;2.97;0.80;;;22.00;97.80;;;;;;4950087;28;20043;-87
2023/06/30 10:38:29;;;;;;;4.22;0.75;;;21.80;97.90;;;;;;4933037;28;20513;-87
2023/06/30 10:41:19;;;;;;;4.43;1.17;;;21.60;98.50;;;;;;4932132;29;20066;-86
2023/06/30 10:44:20;;;;;;;2.92;0.80;;;21.50;98.50;;;;;;4948294;28;20043;-86
2023/06/30 10:46:52;;;;;;;3.28;1.05;;;21.40;98.40;;;;;;4919759;28;20059;-86
2023/06/30 10:49:37;;;;;;;5.55;1.08;;;21.50;99.50;;;;;;4934153;28;20054;-86
2023/06/30 10:52:07;;;;;;;12.05;1.10;;;21.60;99.00;;;;;;4936761;28;20046;-86
2023/06/30 10:54:41;;;;;;;4.32;0.80;;;21.50;98.50;;;;;;4932553;28;20377;-87
2023/06/30 10:57:23;;;;;;;5.55;0.73;;;21.40;97.70;;;;;;4952138;28;20102;-87
2023/06/30 11:00:06;;;;;;;3.00;0.80;;;21.30;97.80;;;;;;4933232;28;20039;-87
2023/06/30 11:02:36;;;;;;;3.83;0.63;;;21.40;97.80;;;;;;4935286;28;20046;-86
2023/06/30 11:05:25;;;;;;;3.28;0.60;;;21.60;98.00;;;;;;4953530;28;20477;-86
2023/06/30 11:08:03;;;;;;;3.30;0.73;;;21.90;96.70;;;;;;4932339;28;20126;-85
2023/06/30 11:10:32;;;;;;;3.53;0.77;;;22.20;98.00;;;;;;4933995;28;20050;-85
2023/06/30 11:12:58;;;;;;;3.08;0.73;;;22.30;96.80;;;;;;4951996;28;20035;-86
2023/06/30 11:15:25;;;;;;;3.00;0.75;;;22.20;97.40;;;;;;4928333;28;20079;-85
2023/06/30 11:17:56;;;;;;;3.20;0.90;;;22.10;97.10;;;;;;4929271;28;20047;-86
2023/06/30 11:20:27;;;;;;;4.65;0.90;;;22.00;97.90;;;;;;4947706;28;20050;-84
2023/06/30 11:23:00;;;;;;;5.50;1.10;;;22.20;96.00;;;;;;4933795;28;20850;-85
2023/06/30 11:25:30;;;;;;;5.47;1.00;;;22.40;96.60;;;;;;4949761;28;20047;-85
2023/06/30 11:27:57;;;;;;;3.40;0.90;;;22.40;97.00;;;;;;4933121;28;20043;-86
2023/06/30 11:30:24;;;;;;;5.15;0.95;;;22.20;96.60;;;;;;4916713;28;20066;-86
2023/06/30 11:32:56;;;;;;;3.42;0.90;;;22.20;96.90;;;;;;4933130;28;20243;-85
2023/06/30 11:35:22;;;;;;;5.93;1.30;;;22.00;97.20;;;;;;4951038;28;20569;-86
2023/06/30 11:37:49;;;;;;;10.70;1.48;;;22.00;97.50;;;;;;4934748;28;20079;-86
2023/06/30 11:40:15;;;;;;;4.70;1.20;;;22.00;96.70;;;;;;4933484;28;20043;-87
2023/06/30 11:42:41;;;;;;;4.32;1.20;;;22.10;97.40;;;;;;4947003;28;20043;-86
2023/06/30 11:45:08;;;;;;;4.35;1.10;;;22.20;97.20;;;;;;4918598;29;20549;-86
2023/06/30 11:47:34;;;;;;;5.30;1.10;;;22.40;97.20;;;;;;4930506;28;20506;-87
2023/06/30 11:50:06;;;;;;;7.05;0.98;;;22.50;96.70;;;;;;4932892;29;20047;-87
2023/06/30 11:52:32;;;;;;;3.58;0.90;;;22.70;95.80;;;;;;4933882;28;20146;-87
2023/06/30 11:55:02;;;;;;;4.43;1.67;;;22.80;95.30;;;;;;4944340;28;20138;-86
2023/06/30 11:57:36;;;;;;;5.55;1.30;;;22.80;95.70;;;;;;4933821;29;20050;-87
2023/06/30 12:00:09;;;;;;;;;;;22.70;95.70;;;;;;4932083;29;20055;-87
2023/06/30 12:02:34;;;;;;;7.03;1.33;;;22.70;96.80;;;;;;4934445;28;20300;-87
2023/06/30 12:05:01;;;;;;;3.97;1.10;;;22.90;96.50;;;;;;4931321;29;20044;-87
2023/06/30 12:07:27;;;;;;;3.97;1.10;;;22.90;96.00;;;;;;4950467;28;20042;-87
2023/06/30 12:10:02;;;;;;;4.75;1.45;;;23.00;96.10;;;;;;4919165;28;20407;-88
2023/06/30 12:12:28;;;;;;;6.30;1.23;;;23.10;95.90;;;;;;4948278;28;20043;-87
2023/06/30 12:14:56;;;;;;;6.63;1.13;;;23.10;95.90;;;;;;4933695;28;20047;-87
2023/06/30 12:17:25;;;;;;;3.03;1.00;;;23.30;95.40;;;;;;4952027;28;20039;-87
2023/06/30 12:19:51;;;;;;;6.45;1.25;;;23.50;95.30;;;;;;4951372;28;20082;-84
2023/06/30 12:22:25;;;;;;;17.35;1.50;;;23.50;95.00;;;;;;4934135;28;20391;-84
2023/06/30 12:24:58;;;;;;;3.25;0.93;;;23.50;93.40;;;;;;4929161;28;20059;-84
2023/06/30 12:27:27;;;;;;;4.32;1.23;;;23.60;95.50;;;;;;4951945;28;20522;-84
2023/06/30 12:29:56;;;;;;;3.45;0.90;;;23.70;95.40;;;;;;4951615;28;20112;-84
2023/06/30 12:32:27;;;;;;;3.05;0.98;;;23.90;95.10;;;;;;4950111;28;20486;-85
2023/06/30 12:34:58;;;;;;;7.88;1.10;;;23.90;94.80;;;;;;4951131;28;20098;-84
2023/06/30 12:37:28;;;;;;;3.97;0.95;;;23.70;94.00;;;;;;4950978;28;20055;-84
2023/06/30 12:39:54;;;;;;;4.20;1.10;;;23.50;94.40;;;;;;4950926;28;20061;-85
2023/06/30 12:42:22;;;;;;;3.92;1.05;;;23.40;94.50;;;;;;4949272;28;20078;-85
2023/06/30 12:44:48;;;;;;;4.47;1.02;;;23.30;94.90;;;;;;4950000;28;20107;-84
2023/06/30 12:47:13;;;;;;;4.07;1.10;;;23.20;94.20;;;;;;4950242;28;20553;-84
2023/06/30 12:49:39;;;;;;;4.90;1.35;;;23.10;94.70;;;;;;4950161;28;20043;-85